sensor_id;sensor_type;location;lat;lon;timestamp;P1;durP1;ratioP1;P2;durP2;ratioP2
75413;SDS011;64758;52.122;5.404;2024-03-22T00:00:39;33.10;;;16.23;;
75413;SDS011;64758;52.122;5.404;2024-03-22T00:03:05;34.30;;;16.45;;
75413;SDS011;64758;52.122;5.404;2024-03-22T00:05:31;31.53;;;16.97;;
75413;SDS011;64758;52.122;5.404;2024-03-22T00:07:56;35.13;;;17.33;;
75413;SDS011;64758;52.122;5.404;2024-03-22T00:10:22;35.47;;;16.65;;
75413;SDS011;64758;52.122;5.404;2024-03-22T00:12:51;33.60;;;17.17;;
75413;SDS011;64758;52.122;5.404;2024-03-22T00:15:17;32.47;;;16.10;;
75413;SDS011;64758;52.122;5.404;2024-03-22T00:17:43;31.92;;;15.88;;
75413;SDS011;64758;52.122;5.404;2024-03-22T00:20:09;33.30;;;16.77;;
75413;SDS011;64758;52.122;5.404;2024-03-22T00:22:35;29.50;;;15.77;;
75413;SDS011;64758;52.122;5.404;2024-03-22T00:25:01;36.50;;;16.43;;
75413;SDS011;64758;52.122;5.404;2024-03-22T00:27:27;31.03;;;15.77;;
75413;SDS011;64758;52.122;5.404;2024-03-22T00:29:53;40.97;;;17.10;;
75413;SDS011;64758;52.122;5.404;2024-03-22T00:32:18;36.80;;;17.80;;
75413;SDS011;64758;52.122;5.404;2024-03-22T00:34:44;31.77;;;15.50;;
75413;SDS011;64758;52.122;5.404;2024-03-22T00:37:10;35.88;;;17.45;;
75413;SDS011;64758;52.122;5.404;2024-03-22T00:39:36;35.97;;;17.70;;
75413;SDS011;64758;52.122;5.404;2024-03-22T00:42:01;35.92;;;17.00;;
75413;SDS011;64758;52.122;5.404;2024-03-22T00:44:27;32.07;;;15.60;;
75413;SDS011;64758;52.122;5.404;2024-03-22T00:46:53;33.10;;;17.53;;
75413;SDS011;64758;52.122;5.404;2024-03-22T00:49:18;35.47;;;17.10;;
75413;SDS011;64758;52.122;5.404;2024-03-22T00:51:44;37.57;;;17.33;;
75413;SDS011;64758;52.122;5.404;2024-03-22T00:54:10;35.20;;;16.77;;
75413;SDS011;64758;52.122;5.404;2024-03-22T00:56:36;36.15;;;17.55;;
75413;SDS011;64758;52.122;5.404;2024-03-22T00:59:01;33.33;;;16.17;;
75413;SDS011;64758;52.122;5.404;2024-03-22T01:01:27;38.92;;;17.55;;
75413;SDS011;64758;52.122;5.404;2024-03-22T01:03:53;38.97;;;17.17;;
75413;SDS011;64758;52.122;5.404;2024-03-22T01:06:18;35.70;;;17.33;;
75413;SDS011;64758;52.122;5.404;2024-03-22T01:08:48;36.75;;;17.52;;
75413;SDS011;64758;52.122;5.404;2024-03-22T01:11:14;35.40;;;17.25;;
75413;SDS011;64758;52.122;5.404;2024-03-22T01:13:40;36.78;;;17.77;;
75413;SDS011;64758;52.122;5.404;2024-03-22T01:16:06;36.97;;;16.90;;
75413;SDS011;64758;52.122;5.404;2024-03-22T01:18:35;34.13;;;16.35;;
75413;SDS011;64758;52.122;5.404;2024-03-22T01:21:01;33.33;;;17.17;;
75413;SDS011;64758;52.122;5.404;2024-03-22T01:23:27;40.93;;;18.87;;
75413;SDS011;64758;52.122;5.404;2024-03-22T01:25:53;39.67;;;16.40;;
75413;SDS011;64758;52.122;5.404;2024-03-22T01:28:19;33.33;;;16.47;;
75413;SDS011;64758;52.122;5.404;2024-03-22T01:30:44;36.40;;;17.00;;
75413;SDS011;64758;52.122;5.404;2024-03-22T01:33:10;35.87;;;17.50;;
75413;SDS011;64758;52.122;5.404;2024-03-22T01:35:35;42.03;;;19.07;;
75413;SDS011;64758;52.122;5.404;2024-03-22T01:38:01;38.53;;;17.63;;
75413;SDS011;64758;52.122;5.404;2024-03-22T01:40:27;44.33;;;19.00;;
75413;SDS011;64758;52.122;5.404;2024-03-22T01:42:53;38.13;;;18.33;;
75413;SDS011;64758;52.122;5.404;2024-03-22T01:45:20;42.67;;;18.27;;
75413;SDS011;64758;52.122;5.404;2024-03-22T01:47:48;40.97;;;17.03;;
75413;SDS011;64758;52.122;5.404;2024-03-22T01:50:14;40.78;;;18.35;;
75413;SDS011;64758;52.122;5.404;2024-03-22T01:52:40;41.53;;;18.25;;
75413;SDS011;64758;52.122;5.404;2024-03-22T01:55:06;41.47;;;18.60;;
75413;SDS011;64758;52.122;5.404;2024-03-22T01:57:33;37.78;;;17.08;;
75413;SDS011;64758;52.122;5.404;2024-03-22T01:59:59;38.53;;;18.00;;
75413;SDS011;64758;52.122;5.404;2024-03-22T02:02:25;36.77;;;17.07;;
75413;SDS011;64758;52.122;5.404;2024-03-22T02:04:51;34.15;;;17.38;;
75413;SDS011;64758;52.122;5.404;2024-03-22T02:07:16;41.70;;;19.05;;
75413;SDS011;64758;52.122;5.404;2024-03-22T02:09:42;35.93;;;17.17;;
75413;SDS011;64758;52.122;5.404;2024-03-22T02:12:08;35.75;;;18.35;;
75413;SDS011;64758;52.122;5.404;2024-03-22T02:14:34;38.03;;;17.63;;
75413;SDS011;64758;52.122;5.404;2024-03-22T02:17:00;39.73;;;17.93;;
75413;SDS011;64758;52.122;5.404;2024-03-22T02:19:25;40.50;;;18.13;;
75413;SDS011;64758;52.122;5.404;2024-03-22T02:21:51;33.83;;;16.92;;
75413;SDS011;64758;52.122;5.404;2024-03-22T02:24:16;38.90;;;17.97;;
75413;SDS011;64758;52.122;5.404;2024-03-22T02:26:42;39.10;;;17.67;;
75413;SDS011;64758;52.122;5.404;2024-03-22T02:29:08;36.13;;;17.77;;
75413;SDS011;64758;52.122;5.404;2024-03-22T02:38:11;36.80;;;17.27;;
75413;SDS011;64758;52.122;5.404;2024-03-22T02:40:37;34.80;;;16.88;;
75413;SDS011;64758;52.122;5.404;2024-03-22T02:43:03;38.30;;;17.13;;
75413;SDS011;64758;52.122;5.404;2024-03-22T02:45:29;37.67;;;18.10;;
75413;SDS011;64758;52.122;5.404;2024-03-22T02:47:56;41.85;;;18.90;;
75413;SDS011;64758;52.122;5.404;2024-03-22T02:50:21;36.60;;;17.60;;
75413;SDS011;64758;52.122;5.404;2024-03-22T02:52:48;38.20;;;17.88;;
75413;SDS011;64758;52.122;5.404;2024-03-22T02:55:14;37.25;;;17.85;;
75413;SDS011;64758;52.122;5.404;2024-03-22T02:57:40;39.93;;;18.80;;
75413;SDS011;64758;52.122;5.404;2024-03-22T03:00:06;36.95;;;18.77;;
75413;SDS011;64758;52.122;5.404;2024-03-22T03:02:32;37.53;;;18.02;;
75413;SDS011;64758;52.122;5.404;2024-03-22T03:04:57;37.60;;;19.00;;
75413;SDS011;64758;52.122;5.404;2024-03-22T03:07:24;42.27;;;19.87;;
75413;SDS011;64758;52.122;5.404;2024-03-22T03:09:50;38.90;;;19.30;;
75413;SDS011;64758;52.122;5.404;2024-03-22T03:12:15;42.35;;;18.50;;
75413;SDS011;64758;52.122;5.404;2024-03-22T03:14:41;41.33;;;19.47;;
75413;SDS011;64758;52.122;5.404;2024-03-22T03:17:07;41.45;;;19.08;;
75413;SDS011;64758;52.122;5.404;2024-03-22T03:19:33;40.20;;;19.50;;
75413;SDS011;64758;52.122;5.404;2024-03-22T03:21:58;46.03;;;19.40;;
75413;SDS011;64758;52.122;5.404;2024-03-22T03:24:24;46.33;;;18.83;;
75413;SDS011;64758;52.122;5.404;2024-03-22T03:26:50;41.70;;;19.47;;
75413;SDS011;64758;52.122;5.404;2024-03-22T03:29:15;46.37;;;19.70;;
75413;SDS011;64758;52.122;5.404;2024-03-22T03:31:41;45.20;;;21.00;;
75413;SDS011;64758;52.122;5.404;2024-03-22T03:34:07;42.73;;;19.30;;
75413;SDS011;64758;52.122;5.404;2024-03-22T03:36:32;44.60;;;18.90;;
75413;SDS011;64758;52.122;5.404;2024-03-22T03:38:58;44.17;;;20.07;;
75413;SDS011;64758;52.122;5.404;2024-03-22T03:41:23;45.53;;;19.95;;
75413;SDS011;64758;52.122;5.404;2024-03-22T03:43:49;43.03;;;19.30;;
75413;SDS011;64758;52.122;5.404;2024-03-22T03:46:15;40.87;;;18.27;;
75413;SDS011;64758;52.122;5.404;2024-03-22T03:48:40;38.30;;;17.57;;
75413;SDS011;64758;52.122;5.404;2024-03-22T03:51:06;40.63;;;17.20;;
75413;SDS011;64758;52.122;5.404;2024-03-22T03:53:31;44.83;;;17.83;;
75413;SDS011;64758;52.122;5.404;2024-03-22T03:55:57;40.47;;;18.23;;
75413;SDS011;64758;52.122;5.404;2024-03-22T03:58:24;36.63;;;16.58;;
75413;SDS011;64758;52.122;5.404;2024-03-22T04:00:49;44.57;;;18.60;;
75413;SDS011;64758;52.122;5.404;2024-03-22T04:03:15;40.67;;;16.40;;
75413;SDS011;64758;52.122;5.404;2024-03-22T04:05:40;36.20;;;16.43;;
75413;SDS011;64758;52.122;5.404;2024-03-22T04:08:06;39.87;;;17.23;;
75413;SDS011;64758;52.122;5.404;2024-03-22T04:10:31;38.28;;;15.75;;
75413;SDS011;64758;52.122;5.404;2024-03-22T04:12:57;38.57;;;15.30;;
75413;SDS011;64758;52.122;5.404;2024-03-22T04:15:23;38.42;;;14.85;;
75413;SDS011;64758;52.122;5.404;2024-03-22T04:17:49;39.85;;;16.17;;
75413;SDS011;64758;52.122;5.404;2024-03-22T04:20:15;35.03;;;15.77;;
75413;SDS011;64758;52.122;5.404;2024-03-22T04:22:40;36.37;;;15.77;;
75413;SDS011;64758;52.122;5.404;2024-03-22T04:25:06;35.83;;;15.83;;
75413;SDS011;64758;52.122;5.404;2024-03-22T04:27:35;37.92;;;15.55;;
75413;SDS011;64758;52.122;5.404;2024-03-22T04:30:01;38.60;;;15.52;;
75413;SDS011;64758;52.122;5.404;2024-03-22T04:32:27;36.70;;;15.87;;
75413;SDS011;64758;52.122;5.404;2024-03-22T04:34:53;36.75;;;16.42;;
75413;SDS011;64758;52.122;5.404;2024-03-22T04:37:20;38.10;;;15.80;;
75413;SDS011;64758;52.122;5.404;2024-03-22T04:39:46;41.27;;;17.27;;
75413;SDS011;64758;52.122;5.404;2024-03-22T04:42:11;43.72;;;17.95;;
75413;SDS011;64758;52.122;5.404;2024-03-22T04:44:37;40.80;;;17.60;;
75413;SDS011;64758;52.122;5.404;2024-03-22T04:47:03;42.92;;;18.02;;
75413;SDS011;64758;52.122;5.404;2024-03-22T04:49:28;36.67;;;15.80;;
75413;SDS011;64758;52.122;5.404;2024-03-22T04:51:54;41.67;;;17.33;;
75413;SDS011;64758;52.122;5.404;2024-03-22T04:54:20;43.50;;;16.30;;
75413;SDS011;64758;52.122;5.404;2024-03-22T04:56:45;39.17;;;16.67;;
75413;SDS011;64758;52.122;5.404;2024-03-22T04:59:11;40.90;;;16.87;;
75413;SDS011;64758;52.122;5.404;2024-03-22T05:01:36;46.57;;;17.70;;
75413;SDS011;64758;52.122;5.404;2024-03-22T05:04:02;38.03;;;16.98;;
75413;SDS011;64758;52.122;5.404;2024-03-22T05:06:28;40.53;;;18.00;;
75413;SDS011;64758;52.122;5.404;2024-03-22T05:08:53;39.07;;;17.67;;
75413;SDS011;64758;52.122;5.404;2024-03-22T05:11:19;47.83;;;18.65;;
75413;SDS011;64758;52.122;5.404;2024-03-22T05:13:44;47.60;;;19.43;;
75413;SDS011;64758;52.122;5.404;2024-03-22T05:16:11;45.67;;;18.40;;
75413;SDS011;64758;52.122;5.404;2024-03-22T05:18:37;46.10;;;18.80;;
75413;SDS011;64758;52.122;5.404;2024-03-22T05:21:03;40.10;;;17.83;;
75413;SDS011;64758;52.122;5.404;2024-03-22T05:23:29;39.07;;;17.33;;
75413;SDS011;64758;52.122;5.404;2024-03-22T05:25:54;43.33;;;17.90;;
75413;SDS011;64758;52.122;5.404;2024-03-22T05:28:20;38.00;;;17.80;;
75413;SDS011;64758;52.122;5.404;2024-03-22T05:30:46;46.05;;;18.90;;
75413;SDS011;64758;52.122;5.404;2024-03-22T05:33:12;41.60;;;18.50;;
75413;SDS011;64758;52.122;5.404;2024-03-22T05:35:37;40.40;;;16.73;;
75413;SDS011;64758;52.122;5.404;2024-03-22T05:38:03;41.60;;;18.60;;
75413;SDS011;64758;52.122;5.404;2024-03-22T05:40:29;42.78;;;17.92;;
75413;SDS011;64758;52.122;5.404;2024-03-22T05:42:54;38.83;;;17.67;;
75413;SDS011;64758;52.122;5.404;2024-03-22T05:45:20;40.30;;;18.35;;
75413;SDS011;64758;52.122;5.404;2024-03-22T05:47:46;37.13;;;17.37;;
75413;SDS011;64758;52.122;5.404;2024-03-22T05:50:12;43.88;;;17.35;;
75413;SDS011;64758;52.122;5.404;2024-03-22T05:52:39;40.85;;;17.30;;
75413;SDS011;64758;52.122;5.404;2024-03-22T05:55:05;39.83;;;17.37;;
75413;SDS011;64758;52.122;5.404;2024-03-22T05:57:31;42.90;;;17.65;;
75413;SDS011;64758;52.122;5.404;2024-03-22T05:59:57;37.33;;;16.10;;
75413;SDS011;64758;52.122;5.404;2024-03-22T06:02:23;38.72;;;17.35;;
75413;SDS011;64758;52.122;5.404;2024-03-22T06:04:48;39.77;;;16.73;;
75413;SDS011;64758;52.122;5.404;2024-03-22T06:07:14;37.10;;;16.80;;
75413;SDS011;64758;52.122;5.404;2024-03-22T06:09:41;40.88;;;16.50;;
75413;SDS011;64758;52.122;5.404;2024-03-22T06:12:14;39.80;;;16.27;;
75413;SDS011;64758;52.122;5.404;2024-03-22T06:14:41;43.65;;;16.48;;
75413;SDS011;64758;52.122;5.404;2024-03-22T06:17:08;42.33;;;17.60;;
75413;SDS011;64758;52.122;5.404;2024-03-22T06:19:34;37.20;;;16.80;;
75413;SDS011;64758;52.122;5.404;2024-03-22T06:22:00;38.40;;;16.40;;
75413;SDS011;64758;52.122;5.404;2024-03-22T06:24:25;40.60;;;17.20;;
75413;SDS011;64758;52.122;5.404;2024-03-22T06:26:51;37.87;;;16.40;;
75413;SDS011;64758;52.122;5.404;2024-03-22T06:29:17;40.33;;;17.00;;
75413;SDS011;64758;52.122;5.404;2024-03-22T06:31:42;40.22;;;17.10;;
75413;SDS011;64758;52.122;5.404;2024-03-22T06:34:08;35.00;;;16.03;;
75413;SDS011;64758;52.122;5.404;2024-03-22T06:36:34;34.67;;;15.10;;
75413;SDS011;64758;52.122;5.404;2024-03-22T06:38:59;33.53;;;14.63;;
75413;SDS011;64758;52.122;5.404;2024-03-22T06:41:25;32.10;;;14.75;;
75413;SDS011;64758;52.122;5.404;2024-03-22T06:43:51;30.43;;;15.10;;
75413;SDS011;64758;52.122;5.404;2024-03-22T06:46:17;28.92;;;14.15;;
75413;SDS011;64758;52.122;5.404;2024-03-22T06:48:43;30.20;;;14.10;;
75413;SDS011;64758;52.122;5.404;2024-03-22T06:51:08;28.77;;;13.30;;
75413;SDS011;64758;52.122;5.404;2024-03-22T06:53:34;32.30;;;14.97;;
75413;SDS011;64758;52.122;5.404;2024-03-22T06:56:00;26.98;;;12.55;;
75413;SDS011;64758;52.122;5.404;2024-03-22T06:58:25;25.87;;;12.63;;
75413;SDS011;64758;52.122;5.404;2024-03-22T07:00:51;26.13;;;12.60;;
75413;SDS011;64758;52.122;5.404;2024-03-22T07:03:16;26.13;;;12.80;;
75413;SDS011;64758;52.122;5.404;2024-03-22T07:05:42;30.93;;;12.47;;
75413;SDS011;64758;52.122;5.404;2024-03-22T07:08:08;23.93;;;12.70;;
75413;SDS011;64758;52.122;5.404;2024-03-22T07:10:34;28.10;;;12.70;;
75413;SDS011;64758;52.122;5.404;2024-03-22T07:13:04;25.20;;;11.90;;
75413;SDS011;64758;52.122;5.404;2024-03-22T07:15:30;28.25;;;12.63;;
75413;SDS011;64758;52.122;5.404;2024-03-22T07:17:58;31.70;;;12.73;;
75413;SDS011;64758;52.122;5.404;2024-03-22T07:20:24;30.48;;;13.00;;
75413;SDS011;64758;52.122;5.404;2024-03-22T07:22:50;27.55;;;12.70;;
75413;SDS011;64758;52.122;5.404;2024-03-22T07:25:16;27.00;;;12.40;;
75413;SDS011;64758;52.122;5.404;2024-03-22T07:27:42;28.45;;;12.60;;
75413;SDS011;64758;52.122;5.404;2024-03-22T07:30:07;26.10;;;11.87;;
75413;SDS011;64758;52.122;5.404;2024-03-22T07:32:33;25.40;;;12.18;;
75413;SDS011;64758;52.122;5.404;2024-03-22T07:34:59;23.10;;;10.87;;
75413;SDS011;64758;52.122;5.404;2024-03-22T07:37:24;26.05;;;11.45;;
75413;SDS011;64758;52.122;5.404;2024-03-22T07:39:50;27.67;;;11.37;;
75413;SDS011;64758;52.122;5.404;2024-03-22T07:42:16;21.30;;;11.20;;
75413;SDS011;64758;52.122;5.404;2024-03-22T07:44:42;25.60;;;10.90;;
75413;SDS011;64758;52.122;5.404;2024-03-22T07:47:07;27.30;;;11.32;;
75413;SDS011;64758;52.122;5.404;2024-03-22T07:49:33;29.37;;;12.97;;
75413;SDS011;64758;52.122;5.404;2024-03-22T07:52:02;25.88;;;10.85;;
75413;SDS011;64758;52.122;5.404;2024-03-22T07:54:28;28.38;;;11.75;;
75413;SDS011;64758;52.122;5.404;2024-03-22T07:56:53;24.80;;;12.13;;
75413;SDS011;64758;52.122;5.404;2024-03-22T07:59:19;35.03;;;13.23;;
75413;SDS011;64758;52.122;5.404;2024-03-22T08:01:44;28.20;;;12.07;;
75413;SDS011;64758;52.122;5.404;2024-03-22T08:04:10;29.17;;;13.37;;
75413;SDS011;64758;52.122;5.404;2024-03-22T08:06:36;28.50;;;11.73;;
75413;SDS011;64758;52.122;5.404;2024-03-22T08:09:01;28.83;;;11.77;;
75413;SDS011;64758;52.122;5.404;2024-03-22T08:11:28;28.60;;;13.07;;
75413;SDS011;64758;52.122;5.404;2024-03-22T08:13:54;32.08;;;12.82;;
75413;SDS011;64758;52.122;5.404;2024-03-22T08:16:27;29.43;;;12.47;;
75413;SDS011;64758;52.122;5.404;2024-03-22T08:18:53;28.35;;;12.70;;
75413;SDS011;64758;52.122;5.404;2024-03-22T08:21:18;31.17;;;12.83;;
75413;SDS011;64758;52.122;5.404;2024-03-22T08:23:44;29.63;;;12.57;;
75413;SDS011;64758;52.122;5.404;2024-03-22T08:26:10;26.65;;;12.30;;
75413;SDS011;64758;52.122;5.404;2024-03-22T08:28:35;27.10;;;12.30;;
75413;SDS011;64758;52.122;5.404;2024-03-22T08:31:04;25.60;;;11.90;;
75413;SDS011;64758;52.122;5.404;2024-03-22T08:33:31;27.50;;;11.70;;
75413;SDS011;64758;52.122;5.404;2024-03-22T08:35:56;26.65;;;11.95;;
75413;SDS011;64758;52.122;5.404;2024-03-22T08:38:22;26.50;;;11.27;;
75413;SDS011;64758;52.122;5.404;2024-03-22T08:40:49;24.95;;;11.13;;
75413;SDS011;64758;52.122;5.404;2024-03-22T08:43:15;25.50;;;11.05;;
75413;SDS011;64758;52.122;5.404;2024-03-22T08:45:41;26.75;;;11.55;;
75413;SDS011;64758;52.122;5.404;2024-03-22T08:48:07;21.27;;;10.97;;
75413;SDS011;64758;52.122;5.404;2024-03-22T08:50:33;20.90;;;10.43;;
75413;SDS011;64758;52.122;5.404;2024-03-22T08:52:59;25.07;;;10.43;;
75413;SDS011;64758;52.122;5.404;2024-03-22T08:55:28;25.75;;;11.02;;
75413;SDS011;64758;52.122;5.404;2024-03-22T08:57:54;22.75;;;10.27;;
75413;SDS011;64758;52.122;5.404;2024-03-22T09:00:20;25.70;;;9.90;;
75413;SDS011;64758;52.122;5.404;2024-03-22T09:02:45;21.13;;;10.18;;
75413;SDS011;64758;52.122;5.404;2024-03-22T09:05:11;19.93;;;8.77;;
75413;SDS011;64758;52.122;5.404;2024-03-22T09:07:36;16.25;;;8.55;;
75413;SDS011;64758;52.122;5.404;2024-03-22T09:10:02;22.43;;;9.40;;
75413;SDS011;64758;52.122;5.404;2024-03-22T09:12:28;18.27;;;8.80;;
75413;SDS011;64758;52.122;5.404;2024-03-22T09:14:53;17.57;;;8.67;;
75413;SDS011;64758;52.122;5.404;2024-03-22T09:17:19;20.13;;;8.10;;
75413;SDS011;64758;52.122;5.404;2024-03-22T09:19:45;18.77;;;8.45;;
75413;SDS011;64758;52.122;5.404;2024-03-22T09:22:10;16.67;;;8.37;;
75413;SDS011;64758;52.122;5.404;2024-03-22T09:24:36;22.48;;;8.88;;
75413;SDS011;64758;52.122;5.404;2024-03-22T09:27:02;21.27;;;9.03;;
75413;SDS011;64758;52.122;5.404;2024-03-22T09:29:29;18.33;;;8.48;;
75413;SDS011;64758;52.122;5.404;2024-03-22T09:31:55;18.43;;;8.53;;
75413;SDS011;64758;52.122;5.404;2024-03-22T09:34:20;16.05;;;8.20;;
75413;SDS011;64758;52.122;5.404;2024-03-22T09:36:46;18.73;;;8.00;;
75413;SDS011;64758;52.122;5.404;2024-03-22T09:39:11;14.33;;;7.40;;
75413;SDS011;64758;52.122;5.404;2024-03-22T09:41:40;18.55;;;9.10;;
75413;SDS011;64758;52.122;5.404;2024-03-22T09:44:09;19.55;;;8.10;;
75413;SDS011;64758;52.122;5.404;2024-03-22T09:46:39;11.73;;;7.43;;
75413;SDS011;64758;52.122;5.404;2024-03-22T09:49:08;14.63;;;7.00;;
75413;SDS011;64758;52.122;5.404;2024-03-22T09:51:35;16.00;;;7.50;;
75413;SDS011;64758;52.122;5.404;2024-03-22T09:54:02;14.23;;;6.82;;
75413;SDS011;64758;52.122;5.404;2024-03-22T09:56:28;10.93;;;6.67;;
75413;SDS011;64758;52.122;5.404;2024-03-22T09:58:56;14.97;;;6.97;;
75413;SDS011;64758;52.122;5.404;2024-03-22T10:01:23;10.70;;;6.28;;
75413;SDS011;64758;52.122;5.404;2024-03-22T10:03:51;11.65;;;5.97;;
75413;SDS011;64758;52.122;5.404;2024-03-22T10:06:16;10.73;;;5.97;;
75413;SDS011;64758;52.122;5.404;2024-03-22T10:08:42;10.37;;;5.17;;
75413;SDS011;64758;52.122;5.404;2024-03-22T10:11:08;9.75;;;6.13;;
75413;SDS011;64758;52.122;5.404;2024-03-22T10:13:33;9.40;;;5.40;;
75413;SDS011;64758;52.122;5.404;2024-03-22T10:15:59;12.67;;;5.50;;
75413;SDS011;64758;52.122;5.404;2024-03-22T10:18:25;10.60;;;5.30;;
75413;SDS011;64758;52.122;5.404;2024-03-22T10:23:27;8.47;;;4.90;;
75413;SDS011;64758;52.122;5.404;2024-03-22T10:25:54;9.05;;;4.38;;
75413;SDS011;64758;52.122;5.404;2024-03-22T10:28:21;6.20;;;4.47;;
75413;SDS011;64758;52.122;5.404;2024-03-22T10:30:47;6.90;;;4.27;;
75413;SDS011;64758;52.122;5.404;2024-03-22T10:33:15;7.88;;;5.03;;
75413;SDS011;64758;52.122;5.404;2024-03-22T10:35:41;8.10;;;4.65;;
75413;SDS011;64758;52.122;5.404;2024-03-22T10:38:09;10.82;;;5.07;;
75413;SDS011;64758;52.122;5.404;2024-03-22T10:40:38;7.55;;;4.80;;
75413;SDS011;64758;52.122;5.404;2024-03-22T10:43:05;7.03;;;4.43;;
75413;SDS011;64758;52.122;5.404;2024-03-22T10:45:31;7.55;;;4.78;;
75413;SDS011;64758;52.122;5.404;2024-03-22T10:47:58;11.88;;;5.22;;
75413;SDS011;64758;52.122;5.404;2024-03-22T10:50:27;8.00;;;5.28;;
75413;SDS011;64758;52.122;5.404;2024-03-22T10:53:01;7.37;;;4.63;;
75413;SDS011;64758;52.122;5.404;2024-03-22T10:55:35;9.60;;;5.63;;
75413;SDS011;64758;52.122;5.404;2024-03-22T10:58:03;7.95;;;5.63;;
75413;SDS011;64758;52.122;5.404;2024-03-22T11:00:30;8.90;;;5.50;;
75413;SDS011;64758;52.122;5.404;2024-03-22T11:02:57;11.13;;;5.47;;
75413;SDS011;64758;52.122;5.404;2024-03-22T11:05:23;9.37;;;5.33;;
75413;SDS011;64758;52.122;5.404;2024-03-22T11:08:02;8.15;;;5.50;;
75413;SDS011;64758;52.122;5.404;2024-03-22T11:10:34;9.95;;;6.03;;
75413;SDS011;64758;52.122;5.404;2024-03-22T11:13:04;9.20;;;5.53;;
75413;SDS011;64758;52.122;5.404;2024-03-22T11:15:32;7.50;;;5.60;;
75413;SDS011;64758;52.122;5.404;2024-03-22T11:17:58;9.18;;;5.90;;
75413;SDS011;64758;52.122;5.404;2024-03-22T11:20:27;9.63;;;5.00;;
75413;SDS011;64758;52.122;5.404;2024-03-22T11:22:53;9.40;;;5.23;;
75413;SDS011;64758;52.122;5.404;2024-03-22T11:25:18;9.05;;;5.82;;
75413;SDS011;64758;52.122;5.404;2024-03-22T11:27:45;9.52;;;5.70;;
75413;SDS011;64758;52.122;5.404;2024-03-22T11:30:11;9.90;;;5.17;;
75413;SDS011;64758;52.122;5.404;2024-03-22T11:32:38;8.43;;;5.00;;
75413;SDS011;64758;52.122;5.404;2024-03-22T11:35:09;8.57;;;5.18;;
75413;SDS011;64758;52.122;5.404;2024-03-22T11:37:37;6.40;;;4.80;;
75413;SDS011;64758;52.122;5.404;2024-03-22T11:40:04;6.50;;;4.50;;
75413;SDS011;64758;52.122;5.404;2024-03-22T11:42:34;6.17;;;4.20;;
75413;SDS011;64758;52.122;5.404;2024-03-22T11:45:00;6.25;;;3.80;;
75413;SDS011;64758;52.122;5.404;2024-03-22T11:47:27;4.88;;;3.15;;
75413;SDS011;64758;52.122;5.404;2024-03-22T11:49:53;6.05;;;3.00;;
75413;SDS011;64758;52.122;5.404;2024-03-22T11:52:24;5.07;;;3.05;;
75413;SDS011;64758;52.122;5.404;2024-03-22T11:54:51;5.17;;;3.20;;
75413;SDS011;64758;52.122;5.404;2024-03-22T11:57:18;4.90;;;2.92;;
75413;SDS011;64758;52.122;5.404;2024-03-22T11:59:44;4.68;;;2.47;;
75413;SDS011;64758;52.122;5.404;2024-03-22T12:02:10;3.90;;;2.43;;
75413;SDS011;64758;52.122;5.404;2024-03-22T12:04:35;3.28;;;2.20;;
75413;SDS011;64758;52.122;5.404;2024-03-22T12:07:01;2.67;;;1.90;;
75413;SDS011;64758;52.122;5.404;2024-03-22T12:09:27;4.75;;;2.50;;
75413;SDS011;64758;52.122;5.404;2024-03-22T12:11:54;3.90;;;2.50;;
75413;SDS011;64758;52.122;5.404;2024-03-22T12:14:20;4.38;;;2.35;;
75413;SDS011;64758;52.122;5.404;2024-03-22T12:16:46;3.83;;;2.20;;
75413;SDS011;64758;52.122;5.404;2024-03-22T12:19:11;3.33;;;1.88;;
75413;SDS011;64758;52.122;5.404;2024-03-22T12:21:37;3.37;;;2.27;;
75413;SDS011;64758;52.122;5.404;2024-03-22T12:24:03;4.37;;;2.00;;
75413;SDS011;64758;52.122;5.404;2024-03-22T12:26:28;3.47;;;2.28;;
75413;SDS011;64758;52.122;5.404;2024-03-22T12:28:57;5.18;;;2.75;;
75413;SDS011;64758;52.122;5.404;2024-03-22T12:31:23;3.03;;;2.23;;
75413;SDS011;64758;52.122;5.404;2024-03-22T12:33:48;4.85;;;2.83;;
75413;SDS011;64758;52.122;5.404;2024-03-22T12:36:14;5.20;;;2.67;;
75413;SDS011;64758;52.122;5.404;2024-03-22T12:38:40;5.28;;;3.10;;
75413;SDS011;64758;52.122;5.404;2024-03-22T12:41:05;5.07;;;2.90;;
75413;SDS011;64758;52.122;5.404;2024-03-22T12:43:32;4.97;;;3.03;;
75413;SDS011;64758;52.122;5.404;2024-03-22T12:45:57;5.50;;;3.57;;
75413;SDS011;64758;52.122;5.404;2024-03-22T12:48:23;7.90;;;4.35;;
75413;SDS011;64758;52.122;5.404;2024-03-22T12:50:49;9.80;;;4.00;;
75413;SDS011;64758;52.122;5.404;2024-03-22T12:53:14;7.05;;;4.50;;
75413;SDS011;64758;52.122;5.404;2024-03-22T12:55:40;7.30;;;4.07;;
75413;SDS011;64758;52.122;5.404;2024-03-22T12:58:05;11.23;;;4.70;;
75413;SDS011;64758;52.122;5.404;2024-03-22T13:00:31;8.07;;;4.47;;
75413;SDS011;64758;52.122;5.404;2024-03-22T13:02:58;10.75;;;4.60;;
75413;SDS011;64758;52.122;5.404;2024-03-22T13:05:25;10.10;;;4.23;;
75413;SDS011;64758;52.122;5.404;2024-03-22T13:07:51;6.18;;;4.07;;
75413;SDS011;64758;52.122;5.404;2024-03-22T13:10:17;6.15;;;4.32;;
75413;SDS011;64758;52.122;5.404;2024-03-22T13:12:42;8.33;;;4.30;;
75413;SDS011;64758;52.122;5.404;2024-03-22T13:15:08;8.20;;;3.88;;
75413;SDS011;64758;52.122;5.404;2024-03-22T13:17:34;8.83;;;3.90;;
75413;SDS011;64758;52.122;5.404;2024-03-22T13:20:00;7.53;;;3.85;;
75413;SDS011;64758;52.122;5.404;2024-03-22T13:22:26;9.80;;;4.13;;
75413;SDS011;64758;52.122;5.404;2024-03-22T13:24:51;8.60;;;4.32;;
75413;SDS011;64758;52.122;5.404;2024-03-22T13:27:17;8.93;;;4.23;;
75413;SDS011;64758;52.122;5.404;2024-03-22T13:29:43;9.35;;;5.10;;
75413;SDS011;64758;52.122;5.404;2024-03-22T13:32:08;10.43;;;4.80;;
75413;SDS011;64758;52.122;5.404;2024-03-22T13:34:34;7.25;;;4.43;;
75413;SDS011;64758;52.122;5.404;2024-03-22T13:37:00;8.15;;;4.60;;
75413;SDS011;64758;52.122;5.404;2024-03-22T13:39:26;11.03;;;4.70;;
75413;SDS011;64758;52.122;5.404;2024-03-22T13:41:54;11.70;;;5.13;;
75413;SDS011;64758;52.122;5.404;2024-03-22T13:44:21;8.23;;;4.63;;
75413;SDS011;64758;52.122;5.404;2024-03-22T13:46:47;9.27;;;4.60;;
75413;SDS011;64758;52.122;5.404;2024-03-22T13:49:16;8.60;;;4.75;;
75413;SDS011;64758;52.122;5.404;2024-03-22T13:51:42;9.95;;;5.05;;
75413;SDS011;64758;52.122;5.404;2024-03-22T13:54:09;9.93;;;4.40;;
75413;SDS011;64758;52.122;5.404;2024-03-22T13:56:36;11.25;;;4.80;;
75413;SDS011;64758;52.122;5.404;2024-03-22T13:59:03;9.27;;;4.77;;
75413;SDS011;64758;52.122;5.404;2024-03-22T14:01:33;8.60;;;4.53;;
75413;SDS011;64758;52.122;5.404;2024-03-22T14:04:03;9.23;;;4.57;;
75413;SDS011;64758;52.122;5.404;2024-03-22T14:06:31;11.27;;;4.70;;
75413;SDS011;64758;52.122;5.404;2024-03-22T14:08:58;13.18;;;5.20;;
75413;SDS011;64758;52.122;5.404;2024-03-22T14:11:28;9.80;;;5.20;;
75413;SDS011;64758;52.122;5.404;2024-03-22T14:13:58;10.27;;;5.15;;
75413;SDS011;64758;52.122;5.404;2024-03-22T14:16:24;11.20;;;4.97;;
75413;SDS011;64758;52.122;5.404;2024-03-22T14:18:50;13.45;;;5.40;;
75413;SDS011;64758;52.122;5.404;2024-03-22T14:21:16;12.53;;;5.10;;
75413;SDS011;64758;52.122;5.404;2024-03-22T14:23:45;13.68;;;5.50;;
75413;SDS011;64758;52.122;5.404;2024-03-22T14:26:15;9.73;;;4.78;;
75413;SDS011;64758;52.122;5.404;2024-03-22T14:28:41;8.57;;;4.93;;
75413;SDS011;64758;52.122;5.404;2024-03-22T14:31:08;11.43;;;5.17;;